createdAt,value
2019-01-25T00:01:09.223Z,73.47
2019-01-25T00:03:38.823Z,74.03
2019-01-25T00:06:09.153Z,77.30
2019-01-25T00:08:38.715Z,77.80
2019-01-25T00:11:08.174Z,76.83
2019-01-25T00:13:37.611Z,75.97
2019-01-25T00:16:07.134Z,78.43
2019-01-25T00:18:36.555Z,78.13
2019-01-25T00:21:06.063Z,76.13
2019-01-25T00:23:35.497Z,73.90
2019-01-25T00:26:05.460Z,75.20
2019-01-25T00:28:35.016Z,77.50
2019-01-25T00:31:04.335Z,79.40
2019-01-25T00:33:33.675Z,73.23
2019-01-25T00:36:03.025Z,75.73
2019-01-25T00:38:32.450Z,83.27
2019-01-25T00:41:01.799Z,82.97
2019-01-25T00:43:31.262Z,85.77
2019-01-25T00:46:00.797Z,75.80
2019-01-25T00:48:30.324Z,78.77
2019-01-25T00:51:00.036Z,80.30
2019-01-25T00:53:29.489Z,73.37
2019-01-25T00:55:58.914Z,82.83
2019-01-25T00:58:28.424Z,82.37
2019-01-25T01:00:57.766Z,72.23
2019-01-25T01:03:27.185Z,77.10
2019-01-25T01:05:56.619Z,81.40
2019-01-25T01:08:26.053Z,79.37
2019-01-25T01:10:55.417Z,83.03
2019-01-25T01:13:24.878Z,74.87
2019-01-25T01:15:54.241Z,79.50
2019-01-25T01:18:23.582Z,77.10
2019-01-25T01:20:52.984Z,75.87
2019-01-25T01:23:22.305Z,75.23
2019-01-25T01:25:51.713Z,79.77
2019-01-25T01:28:21.083Z,79.47
2019-01-25T01:30:50.461Z,78.97
2019-01-25T01:33:19.813Z,77.43
2019-01-25T01:35:49.118Z,80.10
2019-01-25T01:38:18.569Z,72.20
2019-01-25T01:40:47.939Z,78.20
2019-01-25T01:43:17.377Z,63.23
2019-01-25T01:45:46.819Z,77.10
2019-01-25T01:48:16.441Z,81.90
2019-01-25T01:50:45.816Z,73.23
2019-01-25T01:53:15.237Z,71.27
2019-01-25T01:55:44.658Z,72.73
2019-01-25T01:58:13.992Z,68.43
2019-01-25T02:00:43.344Z,70.80
2019-01-25T02:03:12.767Z,72.53
2019-01-25T02:05:42.139Z,70.80
2019-01-25T02:08:11.750Z,67.70
2019-01-25T02:10:41.182Z,69.00
2019-01-25T02:13:10.552Z,71.77
2019-01-25T02:15:39.915Z,66.83
2019-01-25T02:18:09.403Z,68.13
2019-01-25T02:20:38.870Z,66.33
2019-01-25T02:23:08.347Z,67.73
2019-01-25T02:25:37.735Z,66.30
2019-01-25T02:28:07.100Z,70.67
2019-01-25T02:30:36.489Z,73.10
2019-01-25T02:33:06.020Z,68.43
2019-01-25T02:35:35.761Z,72.67
2019-01-25T02:38:05.119Z,69.63
2019-01-25T02:40:39.059Z,74.83
2019-01-25T02:43:05.634Z,75.17
2019-01-25T02:45:35.069Z,77.77
2019-01-25T02:48:04.664Z,76.43
2019-01-25T02:50:34.027Z,76.77
2019-01-25T02:53:04.233Z,73.93
2019-01-25T02:55:33.622Z,67.17
2019-01-25T02:58:03.302Z,73.60
2019-01-25T03:00:32.784Z,78.23
2019-01-25T03:03:02.230Z,73.20
2019-01-25T03:05:31.628Z,69.30
2019-01-25T03:08:01.102Z,78.73
2019-01-25T03:10:30.735Z,78.00
2019-01-25T03:13:00.140Z,71.70
2019-01-25T03:15:29.573Z,77.63
2019-01-25T03:17:59.043Z,77.97
2019-01-25T03:20:28.495Z,71.33
2019-01-25T03:22:57.996Z,82.07
2019-01-25T03:25:27.974Z,74.47
2019-01-25T03:27:57.422Z,82.37
2019-01-25T03:30:27.340Z,73.20
2019-01-25T03:32:56.768Z,73.00
2019-01-25T03:35:26.959Z,72.60
2019-01-25T03:37:56.475Z,74.03
2019-01-25T03:40:27.521Z,77.77
2019-01-25T03:42:57.165Z,70.13
2019-01-25T03:45:27.117Z,73.33
2019-01-25T03:47:56.913Z,74.97
2019-01-25T03:50:28.653Z,77.37
2019-01-25T03:52:58.211Z,73.67
2019-01-25T03:55:28.279Z,78.23
2019-01-25T03:57:57.785Z,73.83
2019-01-25T04:00:28.788Z,73.13
2019-01-25T04:02:58.441Z,76.60
2019-01-25T04:05:27.957Z,70.60
2019-01-25T04:07:57.453Z,71.67
2019-01-25T04:10:28.113Z,77.17
2019-01-25T04:12:57.663Z,74.37
2019-01-25T04:15:32.242Z,78.10
2019-01-25T04:18:01.749Z,79.60
2019-01-25T04:20:31.219Z,73.23
2019-01-25T04:23:00.700Z,80.63
2019-01-25T04:25:30.124Z,76.33
2019-01-25T04:27:59.670Z,76.57
2019-01-25T04:30:30.584Z,76.73
2019-01-25T04:32:59.981Z,78.03
2019-01-25T04:35:29.429Z,77.93
2019-01-25T04:37:58.792Z,79.47
2019-01-25T04:40:28.313Z,77.00
2019-01-25T04:42:57.769Z,72.33
2019-01-25T04:45:27.216Z,70.57
2019-01-25T04:47:56.713Z,73.20
2019-01-25T04:50:26.675Z,71.33
2019-01-25T04:52:56.253Z,70.90
2019-01-25T04:55:30.990Z,75.97
2019-01-25T04:58:25.555Z,70.57
2019-01-25T05:00:55.277Z,74.60
2019-01-25T05:03:24.711Z,70.57
2019-01-25T05:05:54.113Z,73.97
2019-01-25T05:08:23.571Z,74.70
2019-01-25T05:10:52.961Z,72.23
2019-01-25T05:13:22.346Z,73.43
2019-01-25T05:15:51.828Z,74.33
2019-01-25T05:18:21.213Z,72.07
2019-01-25T05:20:50.907Z,72.87
2019-01-25T05:23:20.368Z,65.07
2019-01-25T05:25:49.749Z,73.50
2019-01-25T05:28:19.853Z,71.87
2019-01-25T05:30:57.897Z,68.90
2019-01-25T05:33:27.641Z,72.00
2019-01-25T05:35:56.996Z,68.67
2019-01-25T05:38:26.634Z,66.57
2019-01-25T05:40:56.089Z,74.73
2019-01-25T05:43:25.459Z,67.57
2019-01-25T05:45:54.937Z,69.47
2019-01-25T05:48:30.242Z,64.80
2019-01-25T05:51:05.745Z,65.67
2019-01-25T05:53:35.312Z,70.47
2019-01-25T05:56:06.119Z,67.47
2019-01-25T05:58:35.641Z,64.97
2019-01-25T06:01:05.203Z,66.87
2019-01-25T06:03:34.572Z,69.53
2019-01-25T06:06:06.423Z,65.73
2019-01-25T06:08:43.551Z,65.00
2019-01-25T06:11:11.594Z,68.13
2019-01-25T06:13:45.346Z,69.87
2019-01-25T06:16:16.530Z,65.90
2019-01-25T06:18:46.036Z,70.83
2019-01-25T06:21:15.579Z,66.87
2019-01-25T06:23:45.019Z,68.73
2019-01-25T06:26:14.755Z,68.67
2019-01-25T06:28:45.659Z,72.53
2019-01-25T06:31:18.776Z,65.63
2019-01-25T06:33:48.245Z,64.80
2019-01-25T06:36:17.655Z,66.93
2019-01-25T06:38:47.086Z,62.27
2019-01-25T06:41:16.635Z,65.47
2019-01-25T06:43:46.037Z,59.70
2019-01-25T06:46:15.578Z,63.87
2019-01-25T06:48:45.169Z,64.47
2019-01-25T06:51:14.554Z,60.87
2019-01-25T06:53:43.922Z,68.43
2019-01-25T06:56:13.333Z,55.93
2019-01-25T06:59:00.404Z,58.60
2019-01-25T07:01:38.312Z,66.37
2019-01-25T07:04:07.777Z,67.33
2019-01-25T07:06:37.156Z,59.60
2019-01-25T07:09:12.525Z,63.10
2019-01-25T07:11:42.496Z,63.17
2019-01-25T07:14:11.948Z,55.40
2019-01-25T07:16:41.366Z,64.33
2019-01-25T07:19:10.799Z,57.30
2019-01-25T07:21:40.342Z,57.70
2019-01-25T07:24:09.906Z,57.03
2019-01-25T07:26:39.357Z,62.20
2019-01-25T07:29:08.856Z,56.07
2019-01-25T07:31:38.624Z,57.83
2019-01-25T07:34:08.629Z,54.90
2019-01-25T07:36:38.023Z,54.40
2019-01-25T07:39:18.901Z,61.70
2019-01-25T07:41:48.308Z,53.77
2019-01-25T07:44:17.785Z,58.63
2019-01-25T07:46:47.185Z,54.17
2019-01-25T07:49:16.713Z,55.67
2019-01-25T07:51:46.221Z,55.03
2019-01-25T07:54:15.827Z,53.73
2019-01-25T07:56:45.345Z,56.30
2019-01-25T07:59:14.731Z,52.83
2019-01-25T08:01:44.230Z,53.27
2019-01-25T08:04:13.586Z,56.90
2019-01-25T08:06:42.980Z,54.87
2019-01-25T08:09:14.107Z,52.00
2019-01-25T08:11:43.548Z,54.97
2019-01-25T08:14:13.170Z,55.07
2019-01-25T08:16:43.076Z,55.67
2019-01-25T08:19:12.599Z,50.70
2019-01-25T08:21:42.207Z,54.23
2019-01-25T08:24:11.685Z,53.67
2019-01-25T08:26:41.087Z,52.07
2019-01-25T08:29:10.524Z,53.77
2019-01-25T08:31:40.214Z,55.90
2019-01-25T08:34:09.597Z,53.00
2019-01-25T08:36:39.059Z,51.97
2019-01-25T08:39:09.795Z,55.10
2019-01-25T08:41:39.294Z,56.23
2019-01-25T08:44:08.791Z,53.67
2019-01-25T08:46:39.205Z,53.67
2019-01-25T08:49:08.801Z,55.27
2019-01-25T08:51:38.479Z,55.70
2019-01-25T08:54:08.065Z,47.23
2019-01-25T08:56:37.492Z,48.30
2019-01-25T08:59:07.191Z,50.37
2019-01-25T09:01:36.659Z,52.53
2019-01-25T09:04:06.134Z,48.47
2019-01-25T09:06:35.608Z,51.30
2019-01-25T09:09:09.282Z,50.13
2019-01-25T09:11:39.017Z,48.60
2019-01-25T09:14:08.493Z,45.03
2019-01-25T09:16:37.884Z,50.13
2019-01-25T09:19:07.366Z,51.17
2019-01-25T09:21:36.790Z,46.87
2019-01-25T09:24:06.243Z,49.73
2019-01-25T09:26:35.633Z,49.27
2019-01-25T09:29:05.706Z,42.87
2019-01-25T09:31:35.608Z,46.80
2019-01-25T09:34:05.670Z,46.53
2019-01-25T09:36:35.185Z,45.27
2019-01-25T09:39:09.180Z,47.87
2019-01-25T09:41:39.613Z,50.27
2019-01-25T09:44:08.993Z,44.90
2019-01-25T09:46:38.370Z,48.97
2019-01-25T09:49:07.944Z,44.80
2019-01-25T09:51:37.423Z,47.07
2019-01-25T09:54:06.872Z,45.10
2019-01-25T09:56:36.400Z,46.57
2019-01-25T09:59:06.247Z,48.97
2019-01-25T10:01:35.759Z,46.63
2019-01-25T10:04:05.449Z,43.20
2019-01-25T10:06:34.953Z,43.27
2019-01-25T10:09:07.757Z,48.47
2019-01-25T10:11:37.202Z,47.83
2019-01-25T10:14:06.671Z,54.33
2019-01-25T10:16:36.254Z,46.03
2019-01-25T10:19:05.746Z,47.27
2019-01-25T10:21:35.225Z,51.63
2019-01-25T10:24:04.806Z,50.40
2019-01-25T10:26:34.336Z,46.60
2019-01-25T10:29:04.006Z,46.87
2019-01-25T10:31:33.475Z,46.87
2019-01-25T10:34:02.870Z,48.17
2019-01-25T10:36:32.505Z,40.13
2019-01-25T10:39:01.929Z,38.87
2019-01-25T10:41:31.342Z,48.07
2019-01-25T10:44:00.740Z,44.03
2019-01-25T10:46:30.185Z,45.60
2019-01-25T10:49:01.346Z,46.63
2019-01-25T10:51:30.872Z,49.10
2019-01-25T10:54:00.345Z,44.63
2019-01-25T10:56:29.899Z,45.90
2019-01-25T10:58:59.300Z,46.43
2019-01-25T11:01:28.744Z,47.97
2019-01-25T11:03:58.317Z,45.63
2019-01-25T11:06:27.720Z,46.20
2019-01-25T11:08:57.107Z,50.67
2019-01-25T11:11:26.578Z,45.10
2019-01-25T11:13:55.964Z,50.73
2019-01-25T11:16:25.408Z,46.53
2019-01-25T11:18:55.142Z,50.23
2019-01-25T11:21:24.645Z,53.00
2019-01-25T11:23:54.241Z,47.83
2019-01-25T11:26:23.761Z,48.50
2019-01-25T11:28:53.201Z,43.40
2019-01-25T11:31:22.626Z,43.77
2019-01-25T11:33:52.117Z,44.57
2019-01-25T11:36:21.567Z,41.83
2019-01-25T11:38:51.010Z,45.33
2019-01-25T11:41:20.480Z,44.33
2019-01-25T11:43:49.869Z,41.97
2019-01-25T11:46:19.349Z,44.90
2019-01-25T11:48:48.915Z,44.97
2019-01-25T11:51:19.913Z,50.73
2019-01-25T11:53:49.619Z,50.27
2019-01-25T11:56:19.053Z,52.73
2019-01-25T11:58:48.422Z,48.30
2019-01-25T12:01:17.923Z,50.43
2019-01-25T12:03:47.305Z,48.20
2019-01-25T12:06:17.262Z,49.50
2019-01-25T12:08:46.723Z,49.27
2019-01-25T12:11:16.197Z,47.37
2019-01-25T12:13:45.583Z,46.70
2019-01-25T12:16:15.001Z,50.17
2019-01-25T12:18:44.364Z,54.13
2019-01-25T12:21:13.727Z,47.90
2019-01-25T12:23:43.083Z,50.43
2019-01-25T12:26:12.822Z,50.00
2019-01-25T12:28:42.207Z,48.13
2019-01-25T12:31:11.713Z,50.37
2019-01-25T12:33:41.108Z,46.03
2019-01-25T12:36:10.476Z,47.77
2019-01-25T12:38:39.819Z,46.50
2019-01-25T12:41:09.323Z,47.33
2019-01-25T12:43:38.732Z,44.60
2019-01-25T12:46:08.376Z,43.63
2019-01-25T12:48:37.738Z,45.27
2019-01-25T12:51:20.883Z,47.53
2019-01-25T12:53:50.258Z,42.40
2019-01-25T12:56:19.746Z,44.20
2019-01-25T12:58:49.151Z,43.73
2019-01-25T13:01:20.228Z,44.97
2019-01-25T13:03:49.657Z,45.93
2019-01-25T13:06:19.127Z,44.63
2019-01-25T13:08:48.555Z,49.37
2019-01-25T13:11:18.142Z,48.83
2019-01-25T13:13:47.544Z,45.07
2019-01-25T13:16:16.933Z,52.73
2019-01-25T13:18:46.448Z,45.70
2019-01-25T13:21:15.856Z,49.57
2019-01-25T13:23:45.270Z,44.03
2019-01-25T13:26:14.759Z,40.97
2019-01-25T13:28:44.139Z,37.73
2019-01-25T13:31:13.602Z,32.67
2019-01-25T13:33:43.255Z,37.83
2019-01-25T13:36:13.639Z,37.93
2019-01-25T13:38:43.114Z,37.00
2019-01-25T13:41:12.625Z,36.77
2019-01-25T13:43:42.150Z,40.20
2019-01-25T13:46:11.523Z,38.30
2019-01-25T13:48:40.998Z,36.57
2019-01-25T13:51:10.477Z,38.07
2019-01-25T13:53:39.890Z,43.03
2019-01-25T13:56:09.277Z,40.47
2019-01-25T13:58:38.771Z,39.33
2019-01-25T14:01:08.256Z,37.87
2019-01-25T14:03:37.640Z,38.40
2019-01-25T14:06:07.150Z,35.03
2019-01-25T14:08:36.637Z,39.70
2019-01-25T14:11:06.094Z,39.57
2019-01-25T14:13:35.541Z,36.77
2019-01-25T14:16:05.194Z,38.93
2019-01-25T14:18:34.593Z,35.23
2019-01-25T14:21:04.430Z,37.10
2019-01-25T14:23:34.165Z,38.33
2019-01-25T14:26:03.708Z,34.30
2019-01-25T14:28:33.192Z,35.80
2019-01-25T14:31:02.649Z,38.77
2019-01-25T14:33:32.097Z,37.80
2019-01-25T14:36:01.601Z,33.23
2019-01-25T14:38:31.067Z,34.83
2019-01-25T14:41:00.545Z,32.27
2019-01-25T14:43:30.038Z,32.40
2019-01-25T14:45:59.618Z,34.33
2019-01-25T14:48:29.033Z,33.33
2019-01-25T14:50:58.464Z,37.23
2019-01-25T14:53:27.900Z,36.20
2019-01-25T14:55:57.286Z,39.17
2019-01-25T14:58:26.662Z,36.13
2019-01-25T15:00:57.676Z,37.67
2019-01-25T15:03:27.195Z,37.20
2019-01-25T15:05:56.618Z,35.23
2019-01-25T15:08:26.023Z,34.80
2019-01-25T15:10:55.419Z,36.73
2019-01-25T15:13:24.793Z,34.60
2019-01-25T15:15:54.186Z,39.00
2019-01-25T15:18:23.654Z,39.97
2019-01-25T15:20:53.191Z,35.77
2019-01-25T15:23:24.811Z,38.90
2019-01-25T15:25:54.261Z,36.57
2019-01-25T15:28:23.593Z,37.87
2019-01-25T15:30:53.020Z,35.90
2019-01-25T15:33:22.542Z,35.87
2019-01-25T15:35:51.997Z,37.53
2019-01-25T15:38:21.405Z,40.67
2019-01-25T15:40:50.925Z,36.10
2019-01-25T15:43:20.317Z,35.60
2019-01-25T15:45:50.154Z,36.90
2019-01-25T15:48:19.622Z,35.87
2019-01-25T15:50:49.050Z,36.10
2019-01-25T15:53:18.519Z,35.73
2019-01-25T15:55:48.102Z,36.80
2019-01-25T15:58:17.574Z,33.43
2019-01-25T16:00:47.016Z,33.63
2019-01-25T16:03:16.484Z,39.87
2019-01-25T16:05:45.899Z,37.27
2019-01-25T16:08:15.270Z,36.83
2019-01-25T16:10:44.621Z,36.50
2019-01-25T16:13:14.080Z,38.40
2019-01-25T16:15:43.464Z,37.07
2019-01-25T16:18:12.934Z,34.20
2019-01-25T16:20:42.332Z,39.73
2019-01-25T16:23:11.854Z,39.53
2019-01-25T16:25:41.567Z,36.50
2019-01-25T16:28:11.159Z,37.03
2019-01-25T16:30:40.635Z,36.90
2019-01-25T16:33:10.105Z,35.60
2019-01-25T16:35:39.656Z,29.63
2019-01-25T16:38:09.304Z,36.37
2019-01-25T16:40:38.668Z,37.53
2019-01-25T16:43:09.882Z,38.77
2019-01-25T16:45:43.814Z,37.67
2019-01-25T16:48:13.315Z,41.17
2019-01-25T16:50:42.790Z,34.63
2019-01-25T16:53:13.445Z,34.07
2019-01-25T16:55:43.052Z,36.80
2019-01-25T16:58:12.751Z,34.87
2019-01-25T17:00:44.411Z,37.77
2019-01-25T17:03:13.873Z,36.17
2019-01-25T17:05:43.352Z,34.63
2019-01-25T17:08:12.875Z,39.33
2019-01-25T17:10:42.322Z,38.67
2019-01-25T17:13:11.862Z,35.80
2019-01-25T17:15:41.393Z,37.27
2019-01-25T17:18:11.130Z,31.97
2019-01-25T17:20:41.069Z,37.17
2019-01-25T17:23:10.579Z,38.67
2019-01-25T17:25:39.929Z,36.37
2019-01-25T17:28:10.553Z,44.23
2019-01-25T17:30:40.511Z,37.53
2019-01-25T17:33:10.012Z,38.20
2019-01-25T17:35:39.444Z,41.20
2019-01-25T17:38:09.573Z,38.43
2019-01-25T17:40:46.946Z,37.17
2019-01-25T17:43:15.620Z,39.60
2019-01-25T17:45:45.120Z,38.97
2019-01-25T17:48:14.626Z,36.30
2019-01-25T17:50:44.073Z,40.67
2019-01-25T17:53:13.755Z,40.10
2019-01-25T17:55:43.244Z,35.60
2019-01-25T17:58:12.683Z,38.60
2019-01-25T18:00:54.089Z,39.37
2019-01-25T18:03:23.682Z,37.33
2019-01-25T18:05:53.108Z,39.17
2019-01-25T18:08:22.589Z,40.73
2019-01-25T18:10:52.009Z,35.97
2019-01-25T18:13:21.396Z,42.60
2019-01-25T18:15:50.854Z,42.10
2019-01-25T18:18:20.312Z,40.23
2019-01-25T18:20:49.766Z,41.50
2019-01-25T18:23:19.293Z,43.43
2019-01-25T18:26:01.191Z,38.00
2019-01-25T18:28:37.697Z,38.27
2019-01-25T18:31:19.389Z,36.20
2019-01-25T18:33:48.892Z,40.60
2019-01-25T18:36:18.373Z,40.87
2019-01-25T18:38:47.795Z,38.40
2019-01-25T18:41:17.402Z,42.57
2019-01-25T18:43:46.854Z,42.20
2019-01-25T18:46:16.277Z,39.13
2019-01-25T18:48:46.427Z,38.90
2019-01-25T18:51:15.831Z,38.80
2019-01-25T18:53:45.732Z,40.67
2019-01-25T18:56:16.627Z,41.70
2019-01-25T18:58:46.162Z,39.13
2019-01-25T19:01:15.569Z,40.23
2019-01-25T19:03:44.942Z,40.93
2019-01-25T19:06:15.614Z,43.73
2019-01-25T19:08:45.051Z,39.70
2019-01-25T19:11:14.524Z,37.80
2019-01-25T19:13:44.013Z,37.77
2019-01-25T19:16:13.450Z,41.40
2019-01-25T19:18:42.944Z,41.37
2019-01-25T19:21:12.311Z,35.80
2019-01-25T19:23:41.715Z,46.93
2019-01-25T19:26:11.150Z,38.27
2019-01-25T19:28:40.612Z,36.40
2019-01-25T19:31:10.021Z,36.83
2019-01-25T19:33:39.494Z,37.87
2019-01-25T19:36:08.930Z,33.03
2019-01-25T19:38:38.368Z,37.27
2019-01-25T19:41:07.777Z,33.80
2019-01-25T19:43:37.175Z,37.93
2019-01-25T19:46:06.875Z,36.27
2019-01-25T19:48:36.599Z,31.57
2019-01-25T19:51:06.154Z,33.83
2019-01-25T19:53:35.622Z,34.57
2019-01-25T19:56:05.520Z,30.33
2019-01-25T19:58:35.013Z,30.30
2019-01-25T20:01:04.536Z,34.47
2019-01-25T20:03:33.981Z,31.73
2019-01-25T20:06:03.411Z,33.43
2019-01-25T20:08:32.858Z,32.63
2019-01-25T20:11:02.354Z,32.13
2019-01-25T20:13:31.754Z,29.37
2019-01-25T20:16:01.334Z,29.97
2019-01-25T20:18:30.793Z,31.33
2019-01-25T20:21:00.281Z,30.00
2019-01-25T20:23:29.680Z,29.50
2019-01-25T20:25:59.136Z,27.10
2019-01-25T20:28:28.506Z,27.63
2019-01-25T20:30:58.000Z,29.20
2019-01-25T20:33:27.577Z,31.23
2019-01-25T20:35:57.049Z,29.63
2019-01-25T20:38:26.409Z,29.43
2019-01-25T20:40:55.809Z,35.43
2019-01-25T20:43:25.250Z,31.17
2019-01-25T20:45:54.709Z,25.53
2019-01-25T20:48:24.125Z,27.13
2019-01-25T20:50:54.384Z,26.53
2019-01-25T20:53:23.862Z,24.53
2019-01-25T20:55:53.285Z,25.27
2019-01-25T20:58:22.748Z,27.70
2019-01-25T21:00:52.288Z,23.03
2019-01-25T21:03:21.682Z,23.87
2019-01-25T21:05:51.189Z,23.50
2019-01-25T21:08:20.658Z,23.60
2019-01-25T21:10:50.057Z,22.83
2019-01-25T21:13:19.501Z,23.60
2019-01-25T21:15:49.862Z,24.50
2019-01-25T21:18:19.751Z,22.43
2019-01-25T21:20:49.477Z,22.70
2019-01-25T21:23:18.927Z,20.83
2019-01-25T21:25:48.625Z,19.23
2019-01-25T21:28:19.051Z,21.77
2019-01-25T21:30:48.500Z,19.33
2019-01-25T21:33:18.292Z,22.37
2019-01-25T21:35:47.674Z,20.77
2019-01-25T21:38:17.260Z,21.60
2019-01-25T21:40:46.989Z,20.97
2019-01-25T21:43:16.328Z,19.13
2019-01-25T21:45:45.772Z,19.70
2019-01-25T21:48:16.787Z,18.37
2019-01-25T21:50:47.203Z,19.73
2019-01-25T21:53:16.682Z,22.97
2019-01-25T21:55:46.190Z,17.70
2019-01-25T21:58:15.662Z,20.67
2019-01-25T22:00:45.086Z,18.70
2019-01-25T22:03:14.657Z,19.83
2019-01-25T22:05:44.051Z,16.67
2019-01-25T22:08:13.557Z,19.53
2019-01-25T22:10:47.831Z,17.17
2019-01-25T22:13:17.349Z,17.77
2019-01-25T22:15:51.107Z,17.23
2019-01-25T22:18:17.890Z,17.57
2019-01-25T22:20:47.247Z,15.13
2019-01-25T22:23:17.095Z,16.27
2019-01-25T22:25:46.612Z,17.27
2019-01-25T22:28:15.999Z,14.83
2019-01-25T22:30:45.430Z,17.00
2019-01-25T22:33:14.835Z,15.90
2019-01-25T22:35:44.272Z,14.50
2019-01-25T22:38:13.665Z,16.93
2019-01-25T22:40:43.116Z,15.60
2019-01-25T22:43:12.579Z,15.97
2019-01-25T22:45:42.200Z,15.37
2019-01-25T22:48:11.557Z,18.77
2019-01-25T22:50:40.988Z,16.93
2019-01-25T22:53:10.744Z,18.00
2019-01-25T22:55:41.802Z,17.90
2019-01-25T22:58:11.374Z,18.90
2019-01-25T23:01:17.996Z,17.13
2019-01-25T23:04:28.626Z,19.90
2019-01-25T23:07:11.029Z,19.43
2019-01-25T23:09:49.655Z,18.13
2019-01-25T23:12:19.232Z,20.07
2019-01-25T23:14:48.776Z,18.23
2019-01-25T23:17:18.304Z,19.53
2019-01-25T23:19:47.810Z,18.10
2019-01-25T23:22:17.484Z,19.27
2019-01-25T23:24:46.846Z,19.13
2019-01-25T23:27:16.309Z,18.30
2019-01-25T23:29:45.717Z,20.10
2019-01-25T23:32:15.159Z,19.20
2019-01-25T23:34:44.526Z,16.83
2019-01-25T23:37:13.983Z,21.13
2019-01-25T23:39:43.459Z,20.30
2019-01-25T23:42:12.828Z,17.90
2019-01-25T23:44:42.276Z,18.07
2019-01-25T23:47:11.763Z,19.00
2019-01-25T23:49:41.158Z,19.57
2019-01-25T23:52:10.618Z,18.63
2019-01-25T23:54:40.026Z,19.67
2019-01-25T23:57:09.391Z,17.47
2019-01-25T23:59:38.862Z,20.47
